Time;durP1;ratioP1;P1;durP2;ratioP2;P2;SDS_P1;SDS_P2;PMS_P1;PMS_P2;Temp;Humidity;BMP_temperature;BMP_pressure;BME280_temperature;BME280_humidity;BME280_pressure;Samples;Min_cycle;Max_cycle;Signal;HPM_P1;HPM_P2
2022/03/21 00:01:57;;;;;;;5.43;2.50;;;;;;;17.32;28.38;101092.09;5109608;28;20067;-72
2022/03/21 00:04:24;;;;;;;5.28;2.22;;;;;;;17.32;28.46;101101.97;5104052;28;20027;-71
2022/03/21 00:06:50;;;;;;;7.57;2.47;;;;;;;17.31;28.33;101106.44;5110247;28;20016;-75
2022/03/21 00:09:15;;;;;;;6.30;2.78;;;;;;;17.31;28.59;101110.97;5110547;28;20031;-74
2022/03/21 00:11:41;;;;;;;7.13;2.85;;;;;;;17.30;28.66;101101.22;5109907;28;20012;-71
2022/03/21 00:14:10;;;;;;;7.13;2.42;;;;;;;17.30;28.46;101088.69;5110462;28;20035;-73
2022/03/21 00:16:37;;;;;;;6.22;2.28;;;;;;;17.31;28.35;101089.56;5110176;28;20012;-74
2022/03/21 00:19:03;;;;;;;6.60;2.72;;;;;;;17.29;28.75;101092.34;5092631;28;20020;-74
2022/03/21 00:21:29;;;;;;;3.35;1.88;;;;;;;17.27;28.48;101085.44;5109926;28;20016;-71
2022/03/21 00:23:54;;;;;;;5.25;2.30;;;;;;;17.23;28.64;101076.81;5110195;28;20254;-73
2022/03/21 00:26:20;;;;;;;8.13;2.33;;;;;;;17.29;28.76;101070.94;5109626;28;20023;-69
2022/03/21 00:28:45;;;;;;;5.45;2.38;;;;;;;17.29;28.58;101064.75;5110084;28;20031;-67
2022/03/21 00:31:11;;;;;;;6.57;2.35;;;;;;;17.30;28.63;101067.28;5109255;28;20020;-72
2022/03/21 00:33:36;;;;;;;5.22;2.22;;;;;;;17.28;28.60;101065.72;5109383;28;20024;-71
2022/03/21 00:36:02;;;;;;;8.90;2.75;;;;;;;17.28;28.57;101065.72;5108791;28;20069;-72
2022/03/21 00:38:28;;;;;;;5.53;2.75;;;;;;;17.27;28.84;101059.53;5109084;28;20149;-72
2022/03/21 00:40:54;;;;;;;7.70;3.00;;;;;;;17.27;28.65;101062.22;5109500;28;20019;-70
2022/03/21 00:43:22;;;;;;;8.85;2.30;;;;;;;17.25;29.03;101058.81;5109874;28;20022;-74
2022/03/21 00:45:53;;;;;;;5.72;2.17;;;;;;;17.26;28.82;101055.16;5092070;28;20144;-75
2022/03/21 00:48:20;;;;;;;6.30;2.35;;;;;;;17.26;28.71;101065.88;5108994;28;20079;-74
2022/03/21 00:50:45;;;;;;;4.53;1.90;;;;;;;17.28;28.76;101069.22;5109482;28;20024;-70
2022/03/21 00:53:11;;;;;;;5.88;3.10;;;;;;;17.28;28.97;101066.56;5109244;28;20012;-70
2022/03/21 00:55:37;;;;;;;6.38;2.53;;;;;;;17.28;28.91;101065.72;5109647;28;20260;-75
2022/03/21 00:58:02;;;;;;;7.32;2.75;;;;;;;17.31;28.68;101077.00;5107969;28;20047;-73
2022/03/21 01:00:29;;;;;;;7.13;2.40;;;;;;;17.30;28.82;101071.81;5108984;28;20011;-76
2022/03/21 01:02:57;;;;;;;5.50;2.33;;;;;;;17.32;29.22;101070.69;5109380;28;20012;-76
2022/03/21 01:05:23;;;;;;;5.53;2.65;;;;;;;17.31;28.99;101068.97;5109445;28;20024;-74
2022/03/21 01:07:50;;;;;;;6.85;2.75;;;;;;;17.27;28.71;101059.53;5109216;28;20093;-77
2022/03/21 01:10:18;;;;;;;4.82;2.22;;;;;;;17.33;29.02;101077.75;5108715;28;20020;-72
2022/03/21 01:12:44;;;;;;;7.18;2.38;;;;;;;17.34;28.79;101073.25;5108441;28;20024;-73
2022/03/21 01:15:14;;;;;;;4.13;1.80;;;;;;;17.32;28.74;101069.84;5109160;28;20093;-73
2022/03/21 01:17:40;;;;;;;6.90;2.35;;;;;;;17.28;29.01;101060.38;5109094;28;20008;-73
2022/03/21 01:20:06;;;;;;;7.25;2.33;;;;;;;17.23;28.73;101060.75;5108720;28;20121;-74
2022/03/21 01:22:31;;;;;;;9.60;2.55;;;;;;;17.20;28.98;101051.19;5108955;28;20079;-74
2022/03/21 01:24:57;;;;;;;10.93;3.47;;;;;;;17.22;28.69;101053.72;5109065;28;20036;-72
2022/03/21 01:27:22;;;;;;;7.05;2.33;;;;;;;17.19;28.66;101065.53;5108320;28;20152;-71
2022/03/21 01:29:49;;;;;;;5.82;2.60;;;;;;;17.17;29.07;101050.56;5108563;28;20028;-71
2022/03/21 01:32:14;;;;;;;10.32;2.58;;;;;;;17.20;29.11;101052.97;5107951;28;20244;-72
2022/03/21 01:34:40;;;;;;;7.20;2.80;;;;;;;17.23;28.54;101053.56;5108708;28;20093;-75
2022/03/21 01:37:05;;;;;;;7.97;2.55;;;;;;;17.19;28.80;101057.50;5108509;28;20065;-73
2022/03/21 01:39:31;;;;;;;5.47;3.28;;;;;;;17.19;28.79;101052.16;5090677;28;20044;-71
2022/03/21 01:41:56;;;;;;;6.82;2.20;;;;;;;17.16;28.55;101049.72;5107877;28;20028;-73
2022/03/21 01:44:22;;;;;;;7.20;2.33;;;;;;;17.11;28.69;101048.41;5107683;28;20140;-73
2022/03/21 01:46:48;;;;;;;5.10;2.42;;;;;;;17.11;28.91;101046.56;5107903;28;20093;-72
2022/03/21 01:49:13;;;;;;;7.85;2.22;;;;;;;17.13;29.01;101046.47;5108501;28;20141;-73
2022/03/21 01:51:42;;;;;;;7.28;3.25;;;;;;;17.12;28.81;101045.59;5108396;28;20093;-73
2022/03/21 01:56:52;;;;;;;6.85;3.00;;;;;;;17.06;28.95;101054.97;5108412;28;20274;-73
2022/03/21 01:59:19;;;;;;;7.28;2.33;;;;;;;17.03;28.98;101065.91;5108460;28;20020;-72
2022/03/21 02:01:45;;;;;;;6.40;2.25;;;;;;;17.00;28.91;101066.16;5105605;28;20015;-76
2022/03/21 02:04:11;;;;;;;5.40;2.15;;;;;;;17.00;28.89;101068.00;5087967;28;20092;-68
2022/03/21 02:06:37;;;;;;;5.68;2.08;;;;;;;17.02;29.03;101061.53;5087841;28;20024;-73
2022/03/21 02:09:05;;;;;;;5.80;2.20;;;;;;;17.18;28.43;101054.94;5093735;28;20022;-71
2022/03/21 02:11:31;;;;;;;7.20;2.83;;;;;;;17.42;28.34;101062.75;5090202;28;20012;-71
2022/03/21 02:13:58;;;;;;;6.28;2.42;;;;;;;17.62;27.95;101057.56;5108436;28;20024;-70
2022/03/21 02:16:28;;;;;;;9.63;2.60;;;;;;;17.76;27.76;101046.53;5102662;28;20245;-72
2022/03/21 02:18:55;;;;;;;8.25;2.42;;;;;;;17.91;27.84;101060.41;5108064;28;20140;-69
2022/03/21 02:21:35;;;;;;;5.40;2.38;;;;;;;18.07;27.45;101059.13;5107932;28;20065;-67
2022/03/21 02:24:22;;;;;;;6.35;2.67;;;;;;;18.17;27.45;101048.47;5108260;28;20074;-68
2022/03/21 02:26:48;;;;;;;7.32;2.47;;;;;;;18.25;27.45;101046.81;5107883;28;20019;-68
2022/03/21 02:29:16;;;;;;;5.22;2.20;;;;;;;18.33;27.37;101047.97;5107920;28;20083;-70
2022/03/21 02:31:42;;;;;;;5.03;2.30;;;;;;;18.35;27.28;101044.19;5107447;28;20018;-69
2022/03/21 02:34:08;;;;;;;6.95;2.03;;;;;;;18.45;27.07;101058.47;5107729;28;20072;-69
2022/03/21 02:36:35;;;;;;;8.02;2.60;;;;;;;18.50;27.13;101055.38;5107698;28;20239;-69
2022/03/21 02:39:01;;;;;;;5.53;2.35;;;;;;;18.56;27.05;101059.34;5107804;28;20016;-70
2022/03/21 02:41:27;;;;;;;6.70;2.47;;;;;;;18.57;26.91;101056.53;5107728;28;20035;-70
2022/03/21 02:43:55;;;;;;;6.15;2.00;;;;;;;18.61;26.86;101055.28;5107809;28;20084;-70
2022/03/21 02:46:21;;;;;;;4.18;1.85;;;;;;;18.66;26.91;101054.88;5107739;28;20008;-70
2022/03/21 02:48:48;;;;;;;5.53;1.98;;;;;;;18.64;26.82;101051.50;5107595;28;20016;-70
2022/03/21 02:51:14;;;;;;;5.63;2.72;;;;;;;18.69;26.85;101053.75;5107662;28;20079;-71
2022/03/21 02:53:41;;;;;;;5.93;2.40;;;;;;;18.71;26.50;101052.63;5107589;28;20019;-71
2022/03/21 02:56:07;;;;;;;4.32;2.35;;;;;;;18.69;26.63;101046.53;5111246;28;20019;-70
2022/03/21 02:58:33;;;;;;;5.93;1.90;;;;;;;18.73;26.60;101053.34;5114412;28;20130;-70
2022/03/21 03:01:06;;;;;;;7.03;2.40;;;;;;;18.75;26.62;101059.41;5114303;28;20031;-70
2022/03/21 03:03:32;;;;;;;4.40;2.35;;;;;;;18.75;26.46;101064.78;5114372;28;20046;-70
2022/03/21 03:05:57;;;;;;;5.80;1.90;;;;;;;18.78;26.43;101057.44;5114311;28;20016;-70
2022/03/21 03:08:23;;;;;;;5.00;2.35;;;;;;;18.80;26.51;101058.16;5114312;28;20060;-70
2022/03/21 03:10:48;;;;;;;6.15;2.40;;;;;;;18.81;26.56;101054.50;5114145;28;20072;-69
2022/03/21 03:13:14;;;;;;;5.38;2.10;;;;;;;18.81;26.42;101047.28;5114147;28;20039;-69
2022/03/21 03:15:39;;;;;;;6.25;2.85;;;;;;;18.84;26.67;101046.16;5114192;28;20024;-68
2022/03/21 03:18:05;;;;;;;7.53;3.03;;;;;;;18.85;26.34;101039.81;5114114;28;20020;-68
2022/03/21 03:20:30;;;;;;;5.07;2.15;;;;;;;18.85;26.35;101037.13;5114135;28;20028;-68
2022/03/21 03:22:59;;;;;;;4.90;2.58;;;;;;;18.86;26.41;101031.63;5114093;28;20028;-69
2022/03/21 03:25:25;;;;;;;4.35;1.98;;;;;;;18.86;26.32;101031.63;5114184;28;20027;-69
2022/03/21 03:27:51;;;;;;;4.93;1.98;;;;;;;18.88;26.41;101027.00;5113981;28;20110;-68
2022/03/21 03:30:16;;;;;;;4.93;2.13;;;;;;;18.90;26.38;101035.72;5114066;28;20031;-68
2022/03/21 03:32:42;;;;;;;8.20;2.40;;;;;;;18.92;26.43;101027.56;5113876;28;20140;-69
2022/03/21 03:35:09;;;;;;;5.35;1.80;;;;;;;18.92;26.26;101023.03;5113860;28;20089;-69
2022/03/21 03:37:35;;;;;;;7.30;2.67;;;;;;;18.94;26.42;101028.31;5114189;28;20040;-69
2022/03/21 03:40:01;;;;;;;5.57;2.17;;;;;;;18.95;26.29;101034.50;5114149;28;20027;-69
2022/03/21 03:42:26;;;;;;;5.47;1.90;;;;;;;18.97;26.44;101028.00;5113958;28;20028;-69
2022/03/21 03:44:52;;;;;;;8.93;2.70;;;;;;;18.97;26.17;101025.31;5114219;28;20016;-69
2022/03/21 03:47:17;;;;;;;4.80;2.13;;;;;;;18.96;26.36;101026.34;5096107;28;20023;-69
2022/03/21 03:49:43;;;;;;;6.68;2.63;;;;;;;18.98;26.25;101020.81;5113793;28;20070;-71
2022/03/21 03:52:08;;;;;;;8.38;2.08;;;;;;;19.00;26.36;101018.84;5113766;28;20027;-70
2022/03/21 03:54:34;;;;;;;7.53;2.35;;;;;;;19.03;26.27;101021.25;5113850;28;20027;-69
2022/03/21 03:56:59;;;;;;;5.63;2.78;;;;;;;19.06;26.22;101012.91;5113845;28;20032;-69
2022/03/21 03:59:25;;;;;;;6.57;2.33;;;;;;;19.08;26.01;101018.97;5113873;28;20020;-69
2022/03/21 04:01:50;;;;;;;5.28;1.95;;;;;;;19.10;26.34;101021.53;5107189;28;20031;-69
2022/03/21 04:04:16;;;;;;;4.97;2.20;;;;;;;19.11;26.19;101021.38;5093470;28;20361;-69
2022/03/21 04:06:41;;;;;;;5.70;2.10;;;;;;;19.12;26.25;101025.75;5092358;28;20234;-69
2022/03/21 04:09:07;;;;;;;7.65;2.35;;;;;;;19.13;26.40;101021.22;5089918;28;20035;-69
2022/03/21 04:11:32;;;;;;;6.63;2.30;;;;;;;19.16;26.24;101024.50;5089973;28;20072;-69
2022/03/21 04:13:58;;;;;;;5.22;2.30;;;;;;;19.20;26.11;101025.06;5090205;28;20110;-68
2022/03/21 04:16:24;;;;;;;6.43;2.25;;;;;;;19.24;26.17;101025.63;5090197;28;20020;-69
2022/03/21 04:18:49;;;;;;;8.38;2.70;;;;;;;19.26;26.05;101032.56;5090049;28;20199;-69
2022/03/21 04:21:15;;;;;;;6.97;3.00;;;;;;;19.33;26.26;101022.09;5090224;28;20017;-69
2022/03/21 04:23:40;;;;;;;4.22;2.30;;;;;;;19.44;25.89;101030.00;5089956;28;20074;-70
2022/03/21 04:26:06;;;;;;;5.85;2.35;;;;;;;19.56;25.79;101032.53;5089883;28;20020;-69
2022/03/21 04:28:32;;;;;;;5.95;2.40;;;;;;;19.63;26.01;101023.75;5102455;28;20024;-69
2022/03/21 04:30:57;;;;;;;6.47;2.60;;;;;;;19.73;25.81;101025.56;5110029;28;20197;-69
2022/03/21 04:33:23;;;;;;;8.02;3.00;;;;;;;19.80;25.71;101013.28;5110065;28;20024;-69
2022/03/21 04:35:48;;;;;;;7.70;3.33;;;;;;;19.88;25.94;101020.63;5109900;28;20112;-70
2022/03/21 04:38:14;;;;;;;4.80;2.63;;;;;;;19.94;26.11;101025.41;5109983;28;20020;-69
2022/03/21 04:40:45;;;;;;;8.82;3.92;;;;;;;20.04;26.08;101031.63;5109862;28;20079;-69
2022/03/21 04:43:11;;;;;;;;;;;;;;;20.01;26.11;101021.16;5110285;28;20019;-69
2022/03/21 04:45:37;;;;;;;6.80;2.83;;;;;;;20.11;26.07;101010.38;5109867;28;19967;-69
2022/03/21 04:48:04;;;;;;;5.93;2.50;;;;;;;20.20;25.85;101016.72;5109922;28;20038;-70
2022/03/21 04:50:30;;;;;;;6.65;2.65;;;;;;;20.27;26.08;101023.19;5109488;28;20012;-70
2022/03/21 04:52:56;;;;;;;7.35;3.20;;;;;;;20.37;25.71;101021.28;5109850;28;20020;-70
2022/03/21 04:55:21;;;;;;;7.35;3.10;;;;;;;20.47;25.88;101023.09;5109908;28;20178;-70
2022/03/21 04:57:47;;;;;;;6.32;2.10;;;;;;;20.56;26.04;101019.50;5109403;28;20153;-70
2022/03/21 05:00:13;;;;;;;6.22;2.22;;;;;;;20.62;25.91;101015.34;5109261;28;20024;-70
2022/03/21 05:02:39;;;;;;;4.72;2.35;;;;;;;20.70;25.81;101019.00;5096149;28;20039;-70
2022/03/21 05:05:05;;;;;;;7.75;2.78;;;;;;;20.82;25.75;101013.41;5089030;28;20099;-70
2022/03/21 05:07:31;;;;;;;7.20;2.75;;;;;;;20.89;25.49;101019.91;5088980;28;20221;-70
2022/03/21 05:09:56;;;;;;;6.25;2.92;;;;;;;20.97;25.63;101022.66;5089075;28;20043;-70
2022/03/21 05:12:22;;;;;;;6.63;2.90;;;;;;;21.02;25.34;101023.06;5088905;28;20035;-70
2022/03/21 05:14:47;;;;;;;9.50;2.85;;;;;;;21.04;25.27;101023.75;5088766;28;20055;-70
2022/03/21 05:17:17;;;;;;;7.82;3.08;;;;;;;21.08;25.25;101018.91;5096622;28;20039;-70
2022/03/21 05:19:44;;;;;;;9.50;3.40;;;;;;;21.10;25.34;101018.78;5107957;28;20025;-70
2022/03/21 05:22:09;;;;;;;7.80;3.00;;;;;;;21.13;25.30;101016.59;5109110;28;20020;-70
2022/03/21 05:35:52;;;;;;;5.65;2.60;;;;;;;21.50;24.99;101022.81;5108739;28;20334;-69
2022/03/21 05:35:56;;;;;;;9.88;3.00;;;;;;;21.44;25.34;101026.09;5108584;28;20028;-68
2022/03/21 05:38:23;;;;;;;6.53;2.80;;;;;;;21.37;25.58;101027.75;5108748;28;20058;-68
2022/03/21 05:40:49;;;;;;;9.48;2.97;;;;;;;21.32;25.65;101015.59;5108629;28;20037;-68
2022/03/21 05:43:15;;;;;;;6.60;2.67;;;;;;;21.35;25.47;101022.50;5108878;28;20043;-68
2022/03/21 05:45:41;;;;;;;8.57;2.67;;;;;;;21.38;25.53;101021.38;5108572;28;20081;-68
2022/03/21 05:50:51;;;;;;;5.40;2.30;;;;;;;21.37;25.58;101025.06;5088222;28;20100;-69
2022/03/21 05:53:17;;;;;;;8.88;2.80;;;;;;;21.32;25.74;101023.66;5088152;28;20039;-69
2022/03/21 05:55:45;;;;;;;8.32;3.15;;;;;;;21.31;25.49;101016.59;5088376;28;20016;-69
2022/03/21 05:58:12;;;;;;;9.70;3.38;;;;;;;21.32;25.60;101012.06;5088096;28;20021;-69
2022/03/21 06:00:38;;;;;;;8.88;3.00;;;;;;;21.30;25.61;101025.66;5088094;28;20028;-69
2022/03/21 06:03:04;;;;;;;10.15;3.45;;;;;;;21.28;25.81;101019.59;5087881;28;20035;-69
2022/03/21 06:05:31;;;;;;;10.35;3.35;;;;;;;21.28;25.76;101019.59;5087973;28;20024;-69
2022/03/21 06:07:57;;;;;;;9.88;3.15;;;;;;;21.27;25.69;101015.19;5087854;28;20043;-69
2022/03/21 06:10:22;;;;;;;8.95;2.50;;;;;;;21.28;25.86;101019.59;5087913;28;20141;-70
2022/03/21 06:12:50;;;;;;;8.77;2.90;;;;;;;21.27;25.84;101014.38;5087738;28;20028;-70
2022/03/21 06:15:16;;;;;;;7.40;3.25;;;;;;;21.26;25.78;101020.75;5087895;28;20096;-70
2022/03/21 06:17:43;;;;;;;5.90;3.10;;;;;;;21.25;25.94;101016.38;5087733;28;20236;-70
2022/03/21 06:20:10;;;;;;;9.20;2.70;;;;;;;21.26;25.94;101013.50;5087875;28;20021;-69
2022/03/21 06:22:36;;;;;;;8.63;3.55;;;;;;;21.27;26.01;101027.84;5087763;28;20020;-69
2022/03/21 06:25:04;;;;;;;9.88;2.95;;;;;;;21.26;25.93;101021.59;5087708;28;20234;-70
2022/03/21 06:27:30;;;;;;;7.57;2.92;;;;;;;21.27;25.90;101011.69;5087791;28;20020;-70
2022/03/21 06:29:55;;;;;;;7.35;3.65;;;;;;;21.26;25.75;101023.44;5087691;28;20084;-70
2022/03/21 06:32:21;;;;;;;7.63;3.10;;;;;;;21.26;25.69;101021.59;5087378;28;20043;-70
2022/03/21 06:34:47;;;;;;;6.32;2.83;;;;;;;21.27;25.86;101015.19;5087596;28;20052;-69
2022/03/21 06:37:13;;;;;;;6.57;2.85;;;;;;;21.29;25.56;101020.44;5087444;28;20044;-70
2022/03/21 06:39:38;;;;;;;10.60;2.88;;;;;;;21.30;25.53;101025.66;5104756;28;20035;-70
2022/03/21 06:42:04;;;;;;;4.82;2.55;;;;;;;21.32;25.62;101017.44;5107598;28;20087;-69
2022/03/21 06:44:30;;;;;;;8.95;3.08;;;;;;;21.32;25.53;101020.16;5107432;28;20028;-69
2022/03/21 06:46:57;;;;;;;7.30;2.97;;;;;;;21.31;25.29;101011.22;5107360;28;20183;-69
2022/03/21 06:49:29;;;;;;;7.15;3.28;;;;;;;21.33;25.46;101019.97;5107704;28;20136;-69
2022/03/21 06:51:56;;;;;;;8.60;3.00;;;;;;;21.33;25.43;101019.97;5107505;28;20020;-69
2022/03/21 06:54:21;;;;;;;6.40;2.83;;;;;;;21.33;25.30;101014.59;5107657;28;20023;-69
2022/03/21 06:56:47;;;;;;;11.23;2.95;;;;;;;21.33;25.25;101019.13;5107567;28;20039;-69
2022/03/21 06:59:12;;;;;;;6.72;3.15;;;;;;;21.35;25.17;101011.72;5107614;28;20019;-69
2022/03/21 07:01:38;;;;;;;7.05;2.70;;;;;;;21.38;25.02;101013.28;5103036;28;20028;-69
2022/03/21 07:04:04;;;;;;;6.82;2.08;;;;;;;21.40;25.40;101009.44;5087308;28;20102;-69
2022/03/21 07:06:30;;;;;;;7.85;2.95;;;;;;;21.40;25.22;100997.78;5086962;28;20024;-69
2022/03/21 07:08:56;;;;;;;10.52;2.42;;;;;;;21.41;25.27;101002.19;5087272;28;20020;-69
2022/03/21 07:11:22;;;;;;;11.43;3.75;;;;;;;21.39;25.06;100996.13;5087193;28;20024;-69
2022/03/21 07:13:48;;;;;;;6.13;2.35;;;;;;;21.41;25.02;100994.09;5087179;28;20092;-69
2022/03/21 07:16:16;;;;;;;5.35;2.28;;;;;;;21.40;25.09;100993.28;5087102;28;20032;-69
2022/03/21 07:18:45;;;;;;;7.30;2.50;;;;;;;21.42;24.97;100999.34;5087109;28;20220;-69
2022/03/21 07:21:13;;;;;;;9.07;2.75;;;;;;;21.44;24.89;100978.50;5087023;28;20016;-68
2022/03/21 07:23:39;;;;;;;5.47;2.55;;;;;;;21.44;25.05;100983.88;5087051;28;20024;-68
2022/03/21 07:26:04;;;;;;;6.93;2.95;;;;;;;21.45;24.80;100988.28;5087091;28;20032;-70
2022/03/21 07:28:31;;;;;;;5.80;2.85;;;;;;;21.47;24.76;100988.09;5100765;28;20023;-70
2022/03/21 07:30:57;;;;;;;6.78;2.70;;;;;;;21.48;24.93;100995.19;5107325;28;20047;-70
2022/03/21 07:33:22;;;;;;;6.00;2.67;;;;;;;21.48;24.82;100997.88;5107226;28;20031;-70
2022/03/21 07:35:48;;;;;;;6.22;2.40;;;;;;;21.48;24.65;101000.56;5107107;28;20138;-68
2022/03/21 07:38:13;;;;;;;5.25;2.17;;;;;;;21.50;24.74;100995.88;5107309;28;20047;-70
2022/03/21 07:40:39;;;;;;;7.18;2.25;;;;;;;21.53;24.91;100992.88;5107169;28;20016;-70
2022/03/21 07:43:05;;;;;;;4.65;2.30;;;;;;;21.56;24.73;100989.00;5109139;28;20023;-70
2022/03/21 07:48:14;;;;;;;12.90;2.88;;;;;;;21.58;24.51;100976.25;5111003;28;20026;-70
2022/03/21 07:50:41;;;;;;;11.65;3.42;;;;;;;21.61;24.58;100974.09;5110833;28;20020;-70
2022/03/21 07:53:07;;;;;;;7.85;2.30;;;;;;;21.62;24.37;100973.09;5110795;28;20041;-70
2022/03/21 07:55:33;;;;;;;5.78;2.65;;;;;;;21.63;24.38;100976.63;5110894;28;20118;-70
2022/03/21 07:57:59;;;;;;;6.22;2.30;;;;;;;21.64;24.65;100973.78;5110796;28;20122;-70
2022/03/21 08:00:26;;;;;;;6.00;2.40;;;;;;;21.69;24.63;100970.63;5110852;28;20023;-70
2022/03/21 08:02:52;;;;;;;8.27;2.35;;;;;;;21.70;24.59;100974.13;5095644;28;20051;-70
2022/03/21 08:05:18;;;;;;;7.50;2.58;;;;;;;21.71;24.48;100962.38;5090351;28;20028;-70
2022/03/21 08:07:43;;;;;;;5.28;2.05;;;;;;;21.72;24.28;100977.53;5090162;28;20166;-70
2022/03/21 08:10:10;;;;;;;8.80;2.40;;;;;;;21.71;24.29;100965.06;5090179;28;20173;-69
2022/03/21 08:12:36;;;;;;;5.45;1.92;;;;;;;21.71;24.35;100976.69;5090059;28;20214;-70
2022/03/21 08:15:01;;;;;;;4.20;2.00;;;;;;;21.73;24.36;100985.47;5090183;28;20048;-70
2022/03/21 08:17:27;;;;;;;6.63;1.90;;;;;;;21.71;24.66;100976.69;5100351;28;20024;-70
2022/03/21 08:19:54;;;;;;;7.00;3.53;;;;;;;21.71;24.43;100974.00;5110367;28;20027;-70
2022/03/21 08:22:20;;;;;;;8.18;2.20;;;;;;;21.75;24.38;100985.28;5110269;28;20043;-70
2022/03/21 08:24:46;;;;;;;6.18;1.88;;;;;;;21.71;24.46;100981.22;5108076;28;20027;-70
2022/03/21 08:27:11;;;;;;;6.63;2.15;;;;;;;21.72;24.34;100991.84;5109770;28;20020;-71
2022/03/21 08:29:37;;;;;;;6.68;1.98;;;;;;;21.70;24.36;100993.00;5110188;28;20028;-71
2022/03/21 08:32:02;;;;;;;4.63;2.20;;;;;;;21.68;24.31;100992.34;5109411;28;20032;-70
2022/03/21 08:34:29;;;;;;;7.03;2.15;;;;;;;21.67;24.37;100993.34;5109746;28;20071;-70
2022/03/21 08:36:54;;;;;;;4.70;1.67;;;;;;;21.67;24.42;100996.88;5109985;28;20218;-70
2022/03/21 08:39:20;;;;;;;5.50;1.88;;;;;;;21.65;24.41;100993.47;5109997;28;20058;-71
2022/03/21 08:41:45;;;;;;;8.10;2.65;;;;;;;21.71;24.44;101006.31;5109890;28;20110;-70
2022/03/21 08:44:11;;;;;;;7.72;2.95;;;;;;;21.77;24.50;100996.75;5109919;28;20024;-70
2022/03/21 08:46:36;;;;;;;6.80;2.28;;;;;;;21.79;24.46;101000.16;5109715;28;20031;-70
2022/03/21 08:51:46;;;;;;;6.70;1.88;;;;;;;21.85;24.54;100993.28;5109478;28;20252;-70
2022/03/21 08:54:13;;;;;;;7.95;2.95;;;;;;;21.88;24.75;100993.78;5109246;28;20027;-70
2022/03/21 08:56:38;;;;;;;5.78;1.98;;;;;;;21.91;24.63;100993.47;5109431;28;20026;-70
2022/03/21 08:59:04;;;;;;;4.82;1.58;;;;;;;21.96;24.61;100993.00;5109547;28;20253;-70
2022/03/21 09:01:29;;;;;;;4.45;1.98;;;;;;;22.02;25.00;100986.97;5107286;28;20020;-69
2022/03/21 09:03:55;;;;;;;5.38;1.90;;;;;;;22.07;25.27;100986.50;5089770;28;20028;-69
2022/03/21 09:06:22;;;;;;;4.30;1.40;;;;;;;22.10;25.32;100983.47;5071320;28;20020;-72
2022/03/21 09:08:48;;;;;;;6.30;2.03;;;;;;;22.17;25.21;100984.50;5097167;28;20039;-74
2022/03/21 09:11:17;;;;;;;5.95;2.00;;;;;;;22.18;25.10;100982.66;5099618;28;20031;-71
2022/03/21 09:13:46;;;;;;;4.22;2.42;;;;;;;22.03;25.45;100990.50;5106874;28;20027;-71
2022/03/21 09:16:13;;;;;;;5.18;2.10;;;;;;;21.85;25.53;100979.81;5093072;28;20035;-71
2022/03/21 09:18:39;;;;;;;7.50;2.72;;;;;;;21.69;25.50;100976.00;5097758;28;20328;-71
2022/03/21 09:21:05;;;;;;;8.93;2.78;;;;;;;21.48;25.69;100981.72;5099017;28;20229;-74
2022/03/21 09:23:31;;;;;;;9.52;3.30;;;;;;;21.25;26.13;100968.75;5096448;28;20027;-72
2022/03/21 09:25:56;;;;;;;8.27;3.40;;;;;;;21.14;27.46;100967.16;5094829;28;20067;-75
2022/03/21 09:28:22;;;;;;;7.38;2.63;;;;;;;21.24;27.36;100977.84;5096909;28;20028;-77
2022/03/21 09:30:48;;;;;;;8.77;3.13;;;;;;;21.24;27.16;100964.38;5105255;28;20035;-78
2022/03/21 09:33:15;;;;;;;9.65;3.15;;;;;;;21.27;27.13;100971.31;5094173;28;20031;-73
2022/03/21 09:35:43;;;;;;;5.35;2.10;;;;;;;21.26;26.61;100975.81;5074858;28;20028;-74
2022/03/21 09:38:10;;;;;;;7.22;2.63;;;;;;;21.17;27.06;100982.16;5102859;28;20074;-73
2022/03/21 09:40:36;;;;;;;10.45;3.28;;;;;;;21.03;27.80;100972.75;5100256;28;20199;-71
2022/03/21 09:43:01;;;;;;;8.00;3.10;;;;;;;20.98;28.39;100967.84;5102983;28;20233;-68
2022/03/21 09:45:28;;;;;;;7.15;2.78;;;;;;;21.01;28.14;100969.41;5097647;28;20039;-70
2022/03/21 09:48:09;;;;;;;5.93;2.42;;;;;;;21.02;27.16;100974.63;5099738;28;20040;-69
2022/03/21 09:53:11;;;;;;;6.60;2.00;;;;;;;20.91;26.46;100958.72;5057801;22;20056;-72
2022/03/21 09:55:37;;;;;;;5.80;2.50;;;;;;;20.89;26.58;100961.53;5047721;28;20056;-72
2022/03/21 09:58:03;;;;;;;7.28;2.45;;;;;;;20.86;26.20;100963.69;5047229;28;20034;-72
2022/03/21 10:00:29;;;;;;;9.05;2.75;;;;;;;20.81;26.17;100961.47;5048152;28;20241;-72
2022/03/21 10:02:56;;;;;;;8.05;2.13;;;;;;;20.76;26.32;100965.63;5032889;28;20025;-72
2022/03/21 10:05:39;;;;;;;6.10;1.75;;;;;;;20.67;26.18;100952.06;5027658;28;20025;-72
2022/03/21 10:08:15;;;;;;;9.52;2.25;;;;;;;20.65;26.16;100955.91;5028174;28;20024;-72
2022/03/21 10:10:50;;;;;;;4.80;1.98;;;;;;;20.62;26.07;100962.44;5046093;28;20037;-72
2022/03/21 10:13:17;;;;;;;5.95;2.33;;;;;;;20.57;25.92;100962.03;5042674;28;20290;-72
2022/03/21 10:15:43;;;;;;;7.05;2.38;;;;;;;20.52;26.05;100954.44;5047740;28;20142;-72
2022/03/21 10:18:10;;;;;;;5.72;2.25;;;;;;;20.53;26.22;100957.94;5046623;28;20029;-72
2022/03/21 10:20:38;;;;;;;4.28;2.22;;;;;;;20.53;26.25;100957.94;5047675;28;20017;-71
2022/03/21 10:23:23;;;;;;;6.00;1.73;;;;;;;20.55;25.86;100961.34;5047593;28;20081;-72
2022/03/21 10:25:50;;;;;;;5.10;2.10;;;;;;;20.53;25.72;100957.94;5047613;28;20037;-72
2022/03/21 10:28:33;;;;;;;5.43;2.03;;;;;;;20.50;26.18;100953.72;5028229;28;20022;-72
2022/03/21 10:31:00;;;;;;;6.20;2.35;;;;;;;20.49;26.13;100953.91;5008083;28;20223;-72
2022/03/21 10:33:25;;;;;;;7.72;2.17;;;;;;;20.53;25.80;100963.31;5008233;28;20033;-72
2022/03/21 10:35:51;;;;;;;8.43;2.47;;;;;;;20.53;25.88;100960.63;5008035;28;20026;-73
2022/03/21 10:38:30;;;;;;;5.70;1.88;;;;;;;20.54;25.61;100962.34;5008337;28;20034;-73
2022/03/21 10:40:56;;;;;;;7.93;1.70;;;;;;;20.52;25.45;100957.13;5007930;28;20132;-73
2022/03/21 10:43:21;;;;;;;4.88;2.05;;;;;;;20.48;25.56;100965.66;5007915;28;20112;-73
2022/03/21 10:45:50;;;;;;;5.88;2.38;;;;;;;20.41;25.46;100947.41;5036643;28;20021;-71
2022/03/21 10:48:17;;;;;;;8.52;2.35;;;;;;;20.38;25.72;100942.34;5046754;28;20021;-68
2022/03/21 10:50:50;;;;;;;7.45;2.15;;;;;;;20.42;25.78;100954.47;5027725;28;20014;-72
2022/03/21 10:53:27;;;;;;;9.23;2.70;;;;;;;20.41;25.52;100952.78;5028234;28;20061;-69
2022/03/21 10:56:07;;;;;;;6.90;2.10;;;;;;;20.43;25.72;100949.97;5021129;28;20089;-69
2022/03/21 10:58:36;;;;;;;7.68;2.28;;;;;;;20.46;25.56;100956.88;5027952;28;20124;-68
2022/03/21 11:01:18;;;;;;;5.93;2.30;;;;;;;20.50;25.65;100951.03;5024534;28;20034;-70
2022/03/21 11:03:49;;;;;;;4.03;1.95;;;;;;;20.56;25.46;100954.97;5026060;28;20029;-69
2022/03/21 11:06:15;;;;;;;4.68;1.83;;;;;;;20.57;25.64;100951.28;5032533;28;20109;-68
2022/03/21 11:08:40;;;;;;;11.52;2.33;;;;;;;20.61;25.62;100962.56;5032128;28;20032;-70
2022/03/21 11:11:08;;;;;;;5.03;2.15;;;;;;;20.63;25.70;100961.44;5029594;28;20056;-70
2022/03/21 11:13:36;;;;;;;5.88;2.33;;;;;;;20.65;25.46;100956.75;5029848;28;20140;-70
2022/03/21 11:16:03;;;;;;;6.75;3.08;;;;;;;20.64;25.87;100947.00;5020785;28;20049;-68
2022/03/21 11:18:29;;;;;;;3.95;1.77;;;;;;;20.67;25.64;100951.22;5015097;28;20034;-68
2022/03/21 11:20:58;;;;;;;7.72;2.20;;;;;;;20.70;25.63;100951.75;5044149;28;20107;-70
2022/03/21 11:23:27;;;;;;;7.38;2.42;;;;;;;20.74;25.92;100944.22;5030033;28;20026;-70
2022/03/21 11:25:57;;;;;;;5.78;2.35;;;;;;;20.80;25.48;100950.88;5011497;28;20100;-68
2022/03/21 11:28:40;;;;;;;4.25;2.22;;;;;;;20.80;25.34;100943.66;5043688;28;20098;-67
2022/03/21 11:31:25;;;;;;;5.05;1.83;;;;;;;20.84;25.07;100952.25;5047697;28;20021;-69
2022/03/21 11:33:56;;;;;;;7.43;2.15;;;;;;;20.83;25.64;100937.97;5024329;28;20153;-71
2022/03/21 11:36:23;;;;;;;9.52;2.25;;;;;;;20.88;25.37;100945.56;5011153;28;20086;-67
2022/03/21 11:38:49;;;;;;;11.52;2.30;;;;;;;20.89;25.47;100936.50;5041296;28;20029;-66
2022/03/21 11:41:23;;;;;;;13.38;2.10;;;;;;;20.93;25.79;100935.19;5037868;28;20213;-67
2022/03/21 11:44:04;;;;;;;7.72;2.03;;;;;;;20.91;25.36;100931.81;5035956;28;20021;-67
2022/03/21 11:46:31;;;;;;;7.88;1.92;;;;;;;20.88;25.31;100932.94;5030507;28;20026;-67